Flight Track Log - Related Links

Times and Time Zones

All times are in EDT time to prevent confusion due to time zone crossing. See the N988LL flight status page for this flight to view local times or setup timezone preferences in your user account.

Time Position Orientation Groundspeed Altitude Reporting Facility
EDT Latitude Longitude Course Direction KTS MPH feet Rate Location/Type
Sat 04:03:46 PM 24.7750 -80.9186 90° East 234 269 2,900  Level Miami Center
Sat 04:04:46 PM 24.7864 -80.8822 71° East 182 209 3,000 50 Climbing Miami Center
Sat 04:05:46 PM 24.8000 -80.8417 70° East 141 162 3,000 200 Level Miami Center
Sat 04:06:46 PM 24.8236 -80.8172 43° Northeast 127 146 3,400 550 Climbing Miami Center
Sat 04:07:46 PM 24.8572 -80.8158 North 106 122 4,100 600 Climbing Miami Center
Sat 04:08:00 PM 24.8289 -80.8203 58° Northeast  Level FlightAware Approximate
Sat 04:08:46 PM 24.8925 -80.8217 351° North 105 121 4,600  Level Miami Center
Sat 04:09:00 PM 24.8500 -80.7747 90° East  Level FlightAware Approximate
Sat 04:09:46 PM 24.9217 -80.8225 359° North 110 127 5,100  Level Miami Center
Sat 04:10:46 PM 24.9550 -80.8236 358° North 110 127 5,500 450 Climbing Miami Center
Sat 04:11:46 PM 24.9864 -80.8247 358° North 110 127 6,000 450 Climbing Miami Center
Sat 04:12:46 PM 25.0197 -80.8258 358° North 110 127 6,400 400 Climbing Miami Center
Sat 04:13:46 PM 25.0533 -80.8269 358° North 110 127 6,800 300 Climbing Miami Center
Sat 04:14:46 PM 25.0886 -80.8281 358° North 117 135 7,000 100 Climbing Miami Center
Sat 04:15:46 PM 25.1306 -80.8294 358° North 128 147 7,000  Level Miami Center
Sat 04:16:46 PM 25.1700 -80.8306 359° North 139 160 7,000 -29 Level Miami Center
Sat 04:22:42 PM 25.4070 -80.8330 359° North 149 171 6,800 -62 Descending FlightAware ADS-B
Sat 04:23:12 PM 25.4290 -80.8340 358° North 160 184 6,600 -436 Descending FlightAware ADS-B
Sat 04:23:37 PM 25.4470 -80.8340 360° North 160 184 6,400 -436 Descending FlightAware ADS-B
Sat 04:24:07 PM 25.4680 -80.8350 358° North 162 186 6,200 -343 Descending FlightAware ADS-B
Sat 04:24:47 PM 25.4970 -80.8360 358° North 160 184 6,000 -480 Descending FlightAware ADS-B
Sat 04:24:57 PM 25.5050 -80.8360 360° North 146 168 5,800 -667 Descending FlightAware ADS-B
Sat 04:25:32 PM 25.5310 -80.8360 360° North 147 169 5,500 -500 Descending FlightAware ADS-B
Sat 04:25:57 PM 25.5470 -80.8370 357° North 147 169 5,300 -400 Descending FlightAware ADS-B
Sat 04:26:17 PM 25.5610 -80.8370 360° North 147 169 5,200 -514 Descending FlightAware ADS-B
Sat 04:26:32 PM 25.5740 -80.8380 356° North 148 170 5,000 -300 Descending FlightAware ADS-B
Sat 04:26:57 PM 25.5910 -80.8380 360° North 148 170 5,000 -650 Level FlightAware ADS-B
Sat 04:28:32 PM 25.6210 -80.7550 68° East 155 178 3,700 -720 Descending FlightAware ADS-B
Sat 04:29:02 PM 25.6110 -80.7400 126° Southeast 147 169 3,500 -545 Descending FlightAware ADS-B
Sat 04:29:27 PM 25.5980 -80.7530 222° Southwest 152 175 3,200 -655 Descending FlightAware ADS-B
Sat 04:29:57 PM 25.6130 -80.7670 320° Northwest 150 173 2,900 -369 Descending FlightAware ADS-B
Sat 04:30:32 PM 25.6340 -80.7590 19° North 156 180 2,800 -387 Descending FlightAware ADS-B
Sat 04:32:02 PM 25.6920 -80.7140 35° Northeast 1,900 -450 Descending FlightAware ADS-B
Sat 04:32:32 PM 25.7100 -80.7020 31° Northeast 149 171 1,900  Level FlightAware ADS-B
Sat 04:32:57 PM 25.7240 -80.6930 30° Northeast 154 177 1,900  Level FlightAware ADS-B
Sat 04:33:27 PM 25.7440 -80.6800 30° Northeast 154 177 1,900  Level FlightAware ADS-B
Sat 04:34:02 PM 25.7630 -80.6650 35° Northeast 147 169 1,900  Level FlightAware ADS-B
Sat 04:34:47 PM 25.7880 -80.6410 41° Northeast 148 170 1,900  Level FlightAware ADS-B
Sat 04:35:07 PM 25.7970 -80.6290 50° Northeast 146 168 1,900  Level FlightAware ADS-B
Sat 04:35:12 PM 25.7990 -80.6250 61° Northeast 146 168 1,900  Level FlightAware ADS-B
Sat 04:35:42 PM 25.8110 -80.6080 52° Northeast 148 170 1,900  Level FlightAware ADS-B
Sat 04:36:02 PM 25.8180 -80.5970 55° Northeast 147 169 1,900  Level FlightAware ADS-B
Sat 04:36:27 PM 25.8310 -80.5820 46° Northeast 147 169 1,900  Level FlightAware ADS-B
Sat 04:36:52 PM 25.8430 -80.5680 46° Northeast 147 169 1,900 -436 Level FlightAware ADS-B
Sat 04:37:22 PM 25.8610 -80.5460 48° Northeast 153 176 1,500 -480 Descending FlightAware ADS-B
Sat 04:37:42 PM 25.8710 -80.5350 45° Northeast 147 169 1,500  Level FlightAware ADS-B
Sat 04:38:07 PM 25.8820 -80.5220 47° Northeast 143 165 1,500  Level FlightAware ADS-B
Sat 04:38:22 PM 25.8890 -80.5140 46° Northeast 140 161 1,500  Level FlightAware ADS-B
Sat 04:38:37 PM 25.8960 -80.5060 46° Northeast 131 151 1,500  Level FlightAware ADS-B
Sat 04:39:07 PM 25.9030 -80.4870 68° East 128 147 1,500  Level FlightAware ADS-B
Sat 04:39:17 PM 25.9030 -80.4800 90° East 128 147 1,500  Level FlightAware ADS-B
Sat 04:40:02 PM 25.9040 -80.4530 88° East 125 144 1,500  Level FlightAware ADS-B
Sat 04:40:42 PM 25.9060 -80.4270 85° East 124 143 1,500  Level FlightAware ADS-B
Sat 04:41:12 PM 25.9070 -80.4080 87° East 116 133 1,500  Level FlightAware ADS-B
Sat 04:41:37 PM 25.9070 -80.3930 90° East 116 133 1,500 120 Level FlightAware ADS-B
Sat 04:42:02 PM 25.9080 -80.3790 85° East 105 121 1,600 -267 Climbing FlightAware ADS-B
Sat 04:42:22 PM 25.9090 -80.3670 85° East 112 129 1,300 -857 Descending FlightAware ADS-B
Sat 04:42:37 PM 25.9090 -80.3590 90° East 98 113 1,100 -533 Descending FlightAware ADS-B
Sat 04:43:07 PM 25.9100 -80.3450 85° East 99 114 900 -327 Descending FlightAware ADS-B
Sat 04:43:32 PM 25.9130 -80.3320 76° East 108 124 800 -240 Descending FlightAware ADS-B
Sat 04:43:57 PM 25.9210 -80.3210 51° Northeast 97 112 700 -300 Descending FlightAware ADS-B
Sat 04:44:12 PM 25.9230 -80.3150 70° East 87 100 600 -533 Descending FlightAware ADS-B
Sat 04:44:42 PM 25.9190 -80.3030 110° East 79 91 300 -545 Descending FlightAware ADS-B
Sat 04:45:07 PM 25.9140 -80.2950 125° Southeast 68 78 100 -480 Descending FlightAware ADS-B
Sat 04:45:37 PM 25.9090 -80.2860 122° Southeast 69 79 -200 Descending FlightAware ADS-B
Sat 04:46:02 PM 25.9060 -80.2800 119° Southeast 35 40  Level FlightAware ADS-B

Login

Don't have an account? Register now (free) for customized features, flight alerts, and more!